sensor_id;sensor_type;location;lat;lon;timestamp;P1;durP1;ratioP1;P2;durP2;ratioP2
73023;SDS011;72676;47.526;8.538;2024-01-15T00:01:57;51.73;;;19.90;;
73023;SDS011;72676;47.526;8.538;2024-01-15T00:04:23;55.63;;;20.50;;
73023;SDS011;72676;47.526;8.538;2024-01-15T00:06:50;58.17;;;21.00;;
73023;SDS011;72676;47.526;8.538;2024-01-15T00:09:17;50.03;;;19.73;;
73023;SDS011;72676;47.526;8.538;2024-01-15T00:11:43;53.67;;;19.83;;
73023;SDS011;72676;47.526;8.538;2024-01-15T00:14:10;59.10;;;21.80;;
73023;SDS011;72676;47.526;8.538;2024-01-15T00:16:36;50.37;;;19.20;;
73023;SDS011;72676;47.526;8.538;2024-01-15T00:19:03;49.37;;;19.70;;
73023;SDS011;72676;47.526;8.538;2024-01-15T00:21:29;57.23;;;21.73;;
73023;SDS011;72676;47.526;8.538;2024-01-15T00:23:56;57.93;;;20.10;;
73023;SDS011;72676;47.526;8.538;2024-01-15T00:26:22;52.20;;;18.83;;
73023;SDS011;72676;47.526;8.538;2024-01-15T00:28:49;48.03;;;17.97;;
73023;SDS011;72676;47.526;8.538;2024-01-15T00:31:16;51.80;;;18.93;;
73023;SDS011;72676;47.526;8.538;2024-01-15T00:33:43;47.60;;;18.97;;
73023;SDS011;72676;47.526;8.538;2024-01-15T00:36:10;50.50;;;18.90;;
73023;SDS011;72676;47.526;8.538;2024-01-15T00:38:37;46.27;;;17.90;;
73023;SDS011;72676;47.526;8.538;2024-01-15T00:41:03;45.23;;;16.83;;
73023;SDS011;72676;47.526;8.538;2024-01-15T00:43:30;50.27;;;18.63;;
73023;SDS011;72676;47.526;8.538;2024-01-15T00:45:56;45.43;;;16.70;;
73023;SDS011;72676;47.526;8.538;2024-01-15T00:48:23;42.63;;;16.77;;
73023;SDS011;72676;47.526;8.538;2024-01-15T00:50:50;36.67;;;15.80;;
73023;SDS011;72676;47.526;8.538;2024-01-15T00:53:17;39.73;;;14.80;;
73023;SDS011;72676;47.526;8.538;2024-01-15T00:55:44;33.80;;;14.63;;
73023;SDS011;72676;47.526;8.538;2024-01-15T00:58:10;38.87;;;14.33;;
73023;SDS011;72676;47.526;8.538;2024-01-15T01:00:36;30.53;;;13.67;;
73023;SDS011;72676;47.526;8.538;2024-01-15T01:03:03;31.43;;;12.87;;
73023;SDS011;72676;47.526;8.538;2024-01-15T01:05:30;25.03;;;11.70;;
73023;SDS011;72676;47.526;8.538;2024-01-15T01:07:56;29.90;;;13.80;;
73023;SDS011;72676;47.526;8.538;2024-01-15T01:10:23;29.60;;;13.13;;
73023;SDS011;72676;47.526;8.538;2024-01-15T01:12:49;28.47;;;12.47;;
73023;SDS011;72676;47.526;8.538;2024-01-15T01:15:16;28.63;;;13.17;;
73023;SDS011;72676;47.526;8.538;2024-01-15T01:17:42;30.20;;;12.80;;
73023;SDS011;72676;47.526;8.538;2024-01-15T01:20:09;33.40;;;13.27;;
73023;SDS011;72676;47.526;8.538;2024-01-15T01:22:37;33.27;;;13.83;;
73023;SDS011;72676;47.526;8.538;2024-01-15T01:25:04;37.70;;;16.67;;
73023;SDS011;72676;47.526;8.538;2024-01-15T01:27:31;44.53;;;14.33;;
73023;SDS011;72676;47.526;8.538;2024-01-15T01:29:57;32.60;;;10.60;;
73023;SDS011;72676;47.526;8.538;2024-01-15T01:32:24;41.60;;;14.50;;
73023;SDS011;72676;47.526;8.538;2024-01-15T01:34:50;37.00;;;16.33;;
73023;SDS011;72676;47.526;8.538;2024-01-15T01:37:17;42.30;;;14.70;;
73023;SDS011;72676;47.526;8.538;2024-01-15T01:39:43;42.83;;;15.87;;
73023;SDS011;72676;47.526;8.538;2024-01-15T01:42:10;40.37;;;15.20;;
73023;SDS011;72676;47.526;8.538;2024-01-15T01:44:38;42.10;;;15.70;;
73023;SDS011;72676;47.526;8.538;2024-01-15T01:47:04;36.70;;;16.40;;
73023;SDS011;72676;47.526;8.538;2024-01-15T01:49:31;49.27;;;16.77;;
73023;SDS011;72676;47.526;8.538;2024-01-15T01:51:59;45.57;;;15.87;;
73023;SDS011;72676;47.526;8.538;2024-01-15T01:54:29;44.63;;;15.77;;
73023;SDS011;72676;47.526;8.538;2024-01-15T01:56:57;40.33;;;14.27;;
73023;SDS011;72676;47.526;8.538;2024-01-15T01:59:27;49.30;;;16.97;;
73023;SDS011;72676;47.526;8.538;2024-01-15T02:01:54;42.17;;;17.10;;
73023;SDS011;72676;47.526;8.538;2024-01-15T02:04:22;47.27;;;17.27;;
73023;SDS011;72676;47.526;8.538;2024-01-15T02:06:51;54.93;;;20.50;;
73023;SDS011;72676;47.526;8.538;2024-01-15T02:09:18;54.73;;;17.50;;
73023;SDS011;72676;47.526;8.538;2024-01-15T02:11:48;45.70;;;16.57;;
73023;SDS011;72676;47.526;8.538;2024-01-15T02:14:15;43.67;;;16.60;;
73023;SDS011;72676;47.526;8.538;2024-01-15T02:16:42;47.00;;;16.97;;
73023;SDS011;72676;47.526;8.538;2024-01-15T02:19:14;47.40;;;17.20;;
73023;SDS011;72676;47.526;8.538;2024-01-15T02:21:42;56.53;;;19.30;;
73023;SDS011;72676;47.526;8.538;2024-01-15T02:24:09;46.23;;;15.73;;
73023;SDS011;72676;47.526;8.538;2024-01-15T02:26:35;46.63;;;16.47;;
73023;SDS011;72676;47.526;8.538;2024-01-15T02:29:04;51.50;;;17.40;;
73023;SDS011;72676;47.526;8.538;2024-01-15T02:31:33;58.63;;;15.47;;
73023;SDS011;72676;47.526;8.538;2024-01-15T02:33:59;53.93;;;19.13;;
73023;SDS011;72676;47.526;8.538;2024-01-15T02:36:26;47.13;;;16.90;;
73023;SDS011;72676;47.526;8.538;2024-01-15T02:38:52;51.33;;;16.73;;
73023;SDS011;72676;47.526;8.538;2024-01-15T02:41:19;47.53;;;18.00;;
73023;SDS011;72676;47.526;8.538;2024-01-15T02:43:45;55.13;;;18.03;;
73023;SDS011;72676;47.526;8.538;2024-01-15T02:46:12;41.70;;;16.00;;
73023;SDS011;72676;47.526;8.538;2024-01-15T02:48:38;47.10;;;17.50;;
73023;SDS011;72676;47.526;8.538;2024-01-15T02:51:05;43.53;;;14.90;;
73023;SDS011;72676;47.526;8.538;2024-01-15T02:53:31;53.87;;;17.47;;
73023;SDS011;72676;47.526;8.538;2024-01-15T02:55:58;44.70;;;14.80;;
73023;SDS011;72676;47.526;8.538;2024-01-15T02:58:24;49.37;;;16.47;;
73023;SDS011;72676;47.526;8.538;2024-01-15T03:00:51;37.60;;;14.43;;
73023;SDS011;72676;47.526;8.538;2024-01-15T03:03:17;48.13;;;14.60;;
73023;SDS011;72676;47.526;8.538;2024-01-15T03:05:44;38.17;;;14.13;;
73023;SDS011;72676;47.526;8.538;2024-01-15T03:08:10;39.43;;;13.60;;
73023;SDS011;72676;47.526;8.538;2024-01-15T03:10:37;39.67;;;14.47;;
73023;SDS011;72676;47.526;8.538;2024-01-15T03:13:03;44.37;;;13.80;;
73023;SDS011;72676;47.526;8.538;2024-01-15T03:15:30;44.43;;;15.63;;
73023;SDS011;72676;47.526;8.538;2024-01-15T03:17:56;39.80;;;12.83;;
73023;SDS011;72676;47.526;8.538;2024-01-15T03:20:23;42.50;;;14.00;;
73023;SDS011;72676;47.526;8.538;2024-01-15T03:22:49;33.97;;;12.57;;
73023;SDS011;72676;47.526;8.538;2024-01-15T03:25:16;40.63;;;13.67;;
73023;SDS011;72676;47.526;8.538;2024-01-15T03:27:42;34.57;;;12.53;;
73023;SDS011;72676;47.526;8.538;2024-01-15T03:30:09;38.03;;;13.20;;
73023;SDS011;72676;47.526;8.538;2024-01-15T03:32:36;32.47;;;11.93;;
73023;SDS011;72676;47.526;8.538;2024-01-15T03:35:03;31.30;;;12.10;;
73023;SDS011;72676;47.526;8.538;2024-01-15T03:37:29;41.03;;;12.77;;
73023;SDS011;72676;47.526;8.538;2024-01-15T03:39:56;33.70;;;11.53;;
73023;SDS011;72676;47.526;8.538;2024-01-15T03:42:23;33.53;;;11.30;;
73023;SDS011;72676;47.526;8.538;2024-01-15T03:44:49;30.87;;;11.23;;
73023;SDS011;72676;47.526;8.538;2024-01-15T03:47:16;35.57;;;11.80;;
73023;SDS011;72676;47.526;8.538;2024-01-15T03:49:42;37.60;;;11.73;;
73023;SDS011;72676;47.526;8.538;2024-01-15T03:52:09;38.27;;;13.77;;
73023;SDS011;72676;47.526;8.538;2024-01-15T03:54:35;35.03;;;12.63;;
73023;SDS011;72676;47.526;8.538;2024-01-15T03:57:02;37.40;;;12.37;;
73023;SDS011;72676;47.526;8.538;2024-01-15T03:59:28;32.77;;;11.67;;
73023;SDS011;72676;47.526;8.538;2024-01-15T04:01:55;35.33;;;11.33;;
73023;SDS011;72676;47.526;8.538;2024-01-15T04:04:21;36.43;;;12.20;;
73023;SDS011;72676;47.526;8.538;2024-01-15T04:06:48;37.73;;;12.73;;
73023;SDS011;72676;47.526;8.538;2024-01-15T04:09:15;33.87;;;11.37;;
73023;SDS011;72676;47.526;8.538;2024-01-15T04:11:41;42.00;;;12.23;;
73023;SDS011;72676;47.526;8.538;2024-01-15T04:14:08;39.57;;;12.70;;
73023;SDS011;72676;47.526;8.538;2024-01-15T04:16:34;34.97;;;13.00;;
73023;SDS011;72676;47.526;8.538;2024-01-15T04:19:01;38.03;;;13.60;;
73023;SDS011;72676;47.526;8.538;2024-01-15T04:21:27;32.97;;;12.17;;
73023;SDS011;72676;47.526;8.538;2024-01-15T04:23:54;35.33;;;12.70;;
73023;SDS011;72676;47.526;8.538;2024-01-15T04:26:20;39.40;;;13.80;;
73023;SDS011;72676;47.526;8.538;2024-01-15T04:28:47;30.50;;;12.97;;
73023;SDS011;72676;47.526;8.538;2024-01-15T04:31:25;40.40;;;14.57;;
73023;SDS011;72676;47.526;8.538;2024-01-15T04:33:55;45.03;;;14.00;;
73023;SDS011;72676;47.526;8.538;2024-01-15T04:36:22;38.70;;;14.50;;
73023;SDS011;72676;47.526;8.538;2024-01-15T04:38:48;40.63;;;13.90;;
73023;SDS011;72676;47.526;8.538;2024-01-15T04:41:15;42.93;;;13.60;;
73023;SDS011;72676;47.526;8.538;2024-01-15T04:43:43;50.13;;;15.60;;
73023;SDS011;72676;47.526;8.538;2024-01-15T04:46:09;46.63;;;15.37;;
73023;SDS011;72676;47.526;8.538;2024-01-15T04:48:36;42.10;;;14.30;;
73023;SDS011;72676;47.526;8.538;2024-01-15T04:51:05;39.00;;;13.60;;
73023;SDS011;72676;47.526;8.538;2024-01-15T04:53:34;44.70;;;16.30;;
73023;SDS011;72676;47.526;8.538;2024-01-15T04:56:01;42.53;;;14.37;;
73023;SDS011;72676;47.526;8.538;2024-01-15T04:58:28;48.87;;;13.73;;
73023;SDS011;72676;47.526;8.538;2024-01-15T05:00:55;50.20;;;16.00;;
73023;SDS011;72676;47.526;8.538;2024-01-15T05:03:22;46.43;;;15.43;;
73023;SDS011;72676;47.526;8.538;2024-01-15T05:05:49;41.83;;;15.03;;
73023;SDS011;72676;47.526;8.538;2024-01-15T05:08:15;42.37;;;15.00;;
73023;SDS011;72676;47.526;8.538;2024-01-15T05:10:42;42.93;;;14.57;;
73023;SDS011;72676;47.526;8.538;2024-01-15T05:13:08;37.60;;;12.70;;
73023;SDS011;72676;47.526;8.538;2024-01-15T05:15:35;37.13;;;13.77;;
73023;SDS011;72676;47.526;8.538;2024-01-15T05:18:01;38.70;;;15.63;;
73023;SDS011;72676;47.526;8.538;2024-01-15T05:20:28;43.90;;;13.90;;
73023;SDS011;72676;47.526;8.538;2024-01-15T05:22:54;37.10;;;14.20;;
73023;SDS011;72676;47.526;8.538;2024-01-15T05:25:21;38.13;;;13.10;;
73023;SDS011;72676;47.526;8.538;2024-01-15T05:27:47;35.40;;;12.47;;
73023;SDS011;72676;47.526;8.538;2024-01-15T05:30:14;38.43;;;12.10;;
73023;SDS011;72676;47.526;8.538;2024-01-15T05:32:41;35.60;;;12.77;;
73023;SDS011;72676;47.526;8.538;2024-01-15T05:35:07;35.00;;;13.23;;
73023;SDS011;72676;47.526;8.538;2024-01-15T05:37:34;35.97;;;12.40;;
73023;SDS011;72676;47.526;8.538;2024-01-15T05:40:00;39.17;;;12.80;;
73023;SDS011;72676;47.526;8.538;2024-01-15T05:42:27;35.10;;;13.30;;
73023;SDS011;72676;47.526;8.538;2024-01-15T05:44:56;42.80;;;14.10;;
73023;SDS011;72676;47.526;8.538;2024-01-15T05:47:23;37.40;;;12.97;;
73023;SDS011;72676;47.526;8.538;2024-01-15T05:49:49;36.50;;;12.80;;
73023;SDS011;72676;47.526;8.538;2024-01-15T05:52:16;32.50;;;11.73;;
73023;SDS011;72676;47.526;8.538;2024-01-15T05:54:43;34.40;;;12.90;;
73023;SDS011;72676;47.526;8.538;2024-01-15T05:57:09;39.13;;;12.43;;
73023;SDS011;72676;47.526;8.538;2024-01-15T05:59:36;34.00;;;12.80;;
73023;SDS011;72676;47.526;8.538;2024-01-15T06:02:03;38.53;;;13.63;;
73023;SDS011;72676;47.526;8.538;2024-01-15T06:04:29;34.90;;;12.00;;
73023;SDS011;72676;47.526;8.538;2024-01-15T06:06:56;30.10;;;11.40;;
73023;SDS011;72676;47.526;8.538;2024-01-15T06:09:23;29.90;;;11.67;;
73023;SDS011;72676;47.526;8.538;2024-01-15T06:11:50;34.80;;;11.60;;
73023;SDS011;72676;47.526;8.538;2024-01-15T06:14:16;31.57;;;12.27;;
73023;SDS011;72676;47.526;8.538;2024-01-15T06:16:43;35.80;;;14.10;;
73023;SDS011;72676;47.526;8.538;2024-01-15T06:19:09;39.43;;;10.87;;
73023;SDS011;72676;47.526;8.538;2024-01-15T06:21:36;35.30;;;13.00;;
73023;SDS011;72676;47.526;8.538;2024-01-15T06:24:02;32.93;;;10.80;;
73023;SDS011;72676;47.526;8.538;2024-01-15T06:26:29;42.37;;;12.67;;
73023;SDS011;72676;47.526;8.538;2024-01-15T06:28:55;41.20;;;13.03;;
73023;SDS011;72676;47.526;8.538;2024-01-15T06:31:22;36.47;;;12.73;;
73023;SDS011;72676;47.526;8.538;2024-01-15T06:33:48;40.07;;;13.90;;
73023;SDS011;72676;47.526;8.538;2024-01-15T06:36:15;32.10;;;11.80;;
73023;SDS011;72676;47.526;8.538;2024-01-15T06:38:45;32.00;;;11.30;;
73023;SDS011;72676;47.526;8.538;2024-01-15T06:41:12;34.77;;;10.93;;
73023;SDS011;72676;47.526;8.538;2024-01-15T06:43:39;35.73;;;12.10;;
73023;SDS011;72676;47.526;8.538;2024-01-15T06:46:05;36.13;;;11.70;;
73023;SDS011;72676;47.526;8.538;2024-01-15T06:48:34;41.33;;;13.00;;
73023;SDS011;72676;47.526;8.538;2024-01-15T06:51:00;38.60;;;13.03;;
73023;SDS011;72676;47.526;8.538;2024-01-15T06:53:27;37.10;;;14.40;;
73023;SDS011;72676;47.526;8.538;2024-01-15T06:55:53;35.07;;;13.73;;
73023;SDS011;72676;47.526;8.538;2024-01-15T06:58:20;37.67;;;14.10;;
73023;SDS011;72676;47.526;8.538;2024-01-15T07:00:46;41.13;;;14.70;;
73023;SDS011;72676;47.526;8.538;2024-01-15T07:03:13;39.13;;;13.47;;
73023;SDS011;72676;47.526;8.538;2024-01-15T07:05:39;36.33;;;13.67;;
73023;SDS011;72676;47.526;8.538;2024-01-15T07:08:06;37.87;;;12.90;;
73023;SDS011;72676;47.526;8.538;2024-01-15T07:10:32;45.10;;;14.13;;
73023;SDS011;72676;47.526;8.538;2024-01-15T07:13:02;34.80;;;13.07;;
73023;SDS011;72676;47.526;8.538;2024-01-15T07:15:29;40.93;;;15.60;;
73023;SDS011;72676;47.526;8.538;2024-01-15T07:17:55;44.80;;;16.40;;
73023;SDS011;72676;47.526;8.538;2024-01-15T07:20:22;38.57;;;13.80;;
73023;SDS011;72676;47.526;8.538;2024-01-15T07:22:48;31.10;;;12.07;;
73023;SDS011;72676;47.526;8.538;2024-01-15T07:25:15;35.47;;;13.33;;
73023;SDS011;72676;47.526;8.538;2024-01-15T07:27:42;39.20;;;13.13;;
73023;SDS011;72676;47.526;8.538;2024-01-15T07:30:11;35.50;;;13.20;;
73023;SDS011;72676;47.526;8.538;2024-01-15T07:32:38;35.93;;;12.43;;
73023;SDS011;72676;47.526;8.538;2024-01-15T07:35:05;31.93;;;11.70;;
73023;SDS011;72676;47.526;8.538;2024-01-15T07:37:32;37.63;;;12.70;;
73023;SDS011;72676;47.526;8.538;2024-01-15T07:39:59;30.47;;;11.30;;
73023;SDS011;72676;47.526;8.538;2024-01-15T07:42:27;34.43;;;13.50;;
73023;SDS011;72676;47.526;8.538;2024-01-15T07:44:53;35.47;;;12.37;;
73023;SDS011;72676;47.526;8.538;2024-01-15T07:47:20;38.37;;;13.67;;
73023;SDS011;72676;47.526;8.538;2024-01-15T07:49:46;36.57;;;12.73;;
73023;SDS011;72676;47.526;8.538;2024-01-15T07:52:13;35.53;;;12.73;;
73023;SDS011;72676;47.526;8.538;2024-01-15T07:54:40;33.47;;;12.50;;
73023;SDS011;72676;47.526;8.538;2024-01-15T07:57:06;34.70;;;13.30;;
73023;SDS011;72676;47.526;8.538;2024-01-15T07:59:33;35.60;;;12.90;;
73023;SDS011;72676;47.526;8.538;2024-01-15T08:02:01;28.67;;;11.50;;
73023;SDS011;72676;47.526;8.538;2024-01-15T08:04:27;28.77;;;11.97;;
73023;SDS011;72676;47.526;8.538;2024-01-15T08:06:54;41.83;;;14.23;;
73023;SDS011;72676;47.526;8.538;2024-01-15T08:09:21;35.97;;;12.20;;
73023;SDS011;72676;47.526;8.538;2024-01-15T08:11:48;37.03;;;12.30;;
73023;SDS011;72676;47.526;8.538;2024-01-15T08:14:15;29.77;;;11.17;;
73023;SDS011;72676;47.526;8.538;2024-01-15T08:16:42;31.23;;;11.40;;
73023;SDS011;72676;47.526;8.538;2024-01-15T08:19:10;34.90;;;11.17;;
73023;SDS011;72676;47.526;8.538;2024-01-15T08:21:36;31.80;;;11.20;;
73023;SDS011;72676;47.526;8.538;2024-01-15T08:24:03;38.80;;;13.50;;
73023;SDS011;72676;47.526;8.538;2024-01-15T08:26:30;32.27;;;11.60;;
73023;SDS011;72676;47.526;8.538;2024-01-15T08:28:56;28.70;;;11.27;;
73023;SDS011;72676;47.526;8.538;2024-01-15T08:31:23;28.20;;;10.97;;
73023;SDS011;72676;47.526;8.538;2024-01-15T08:33:50;32.43;;;11.20;;
73023;SDS011;72676;47.526;8.538;2024-01-15T08:36:17;26.60;;;10.23;;
73023;SDS011;72676;47.526;8.538;2024-01-15T08:38:44;31.00;;;10.50;;
73023;SDS011;72676;47.526;8.538;2024-01-15T08:41:11;39.13;;;10.70;;
73023;SDS011;72676;47.526;8.538;2024-01-15T08:43:37;35.23;;;10.70;;
73023;SDS011;72676;47.526;8.538;2024-01-15T08:46:04;27.47;;;10.60;;
73023;SDS011;72676;47.526;8.538;2024-01-15T08:48:30;23.73;;;8.77;;
73023;SDS011;72676;47.526;8.538;2024-01-15T08:50:57;28.23;;;10.40;;
73023;SDS011;72676;47.526;8.538;2024-01-15T08:53:23;28.27;;;9.10;;
73023;SDS011;72676;47.526;8.538;2024-01-15T08:55:50;24.70;;;9.50;;
73023;SDS011;72676;47.526;8.538;2024-01-15T08:58:17;28.70;;;9.90;;
73023;SDS011;72676;47.526;8.538;2024-01-15T09:00:44;32.43;;;11.07;;
73023;SDS011;72676;47.526;8.538;2024-01-15T09:03:11;26.80;;;9.50;;
73023;SDS011;72676;47.526;8.538;2024-01-15T09:05:38;27.40;;;10.70;;
73023;SDS011;72676;47.526;8.538;2024-01-15T09:08:05;28.23;;;10.23;;
73023;SDS011;72676;47.526;8.538;2024-01-15T09:10:31;31.40;;;10.40;;
73023;SDS011;72676;47.526;8.538;2024-01-15T09:12:58;27.93;;;10.80;;
73023;SDS011;72676;47.526;8.538;2024-01-15T09:15:25;26.57;;;10.23;;
73023;SDS011;72676;47.526;8.538;2024-01-15T09:17:52;27.87;;;11.00;;
73023;SDS011;72676;47.526;8.538;2024-01-15T09:20:18;22.77;;;9.17;;
73023;SDS011;72676;47.526;8.538;2024-01-15T09:22:45;24.30;;;9.20;;
73023;SDS011;72676;47.526;8.538;2024-01-15T09:25:11;28.77;;;9.97;;
73023;SDS011;72676;47.526;8.538;2024-01-15T09:27:38;24.30;;;9.23;;
73023;SDS011;72676;47.526;8.538;2024-01-15T09:30:05;25.60;;;10.20;;
73023;SDS011;72676;47.526;8.538;2024-01-15T09:32:32;32.13;;;10.50;;
73023;SDS011;72676;47.526;8.538;2024-01-15T09:34:59;25.10;;;10.53;;
73023;SDS011;72676;47.526;8.538;2024-01-15T09:37:25;28.50;;;10.03;;
73023;SDS011;72676;47.526;8.538;2024-01-15T09:40:11;25.23;;;9.07;;
73023;SDS011;72676;47.526;8.538;2024-01-15T09:42:41;34.87;;;11.20;;
73023;SDS011;72676;47.526;8.538;2024-01-15T09:45:09;36.27;;;11.07;;
73023;SDS011;72676;47.526;8.538;2024-01-15T09:47:38;27.20;;;10.30;;
73023;SDS011;72676;47.526;8.538;2024-01-15T09:50:10;30.73;;;10.33;;
73023;SDS011;72676;47.526;8.538;2024-01-15T09:52:37;28.87;;;10.17;;
73023;SDS011;72676;47.526;8.538;2024-01-15T09:55:05;30.93;;;9.83;;
73023;SDS011;72676;47.526;8.538;2024-01-15T09:57:32;24.03;;;8.87;;
73023;SDS011;72676;47.526;8.538;2024-01-15T09:59:59;29.23;;;10.97;;
73023;SDS011;72676;47.526;8.538;2024-01-15T10:02:30;26.35;;;10.48;;
73023;SDS011;72676;47.526;8.538;2024-01-15T10:04:57;28.47;;;10.73;;
73023;SDS011;72676;47.526;8.538;2024-01-15T10:07:23;24.93;;;9.87;;
73023;SDS011;72676;47.526;8.538;2024-01-15T10:09:52;24.77;;;9.60;;
73023;SDS011;72676;47.526;8.538;2024-01-15T10:12:18;24.53;;;10.23;;
73023;SDS011;72676;47.526;8.538;2024-01-15T10:14:47;24.90;;;9.90;;
73023;SDS011;72676;47.526;8.538;2024-01-15T10:17:15;23.03;;;9.53;;
73023;SDS011;72676;47.526;8.538;2024-01-15T10:19:46;23.73;;;8.87;;
73023;SDS011;72676;47.526;8.538;2024-01-15T10:22:16;20.80;;;8.40;;
73023;SDS011;72676;47.526;8.538;2024-01-15T10:24:44;27.03;;;8.43;;
73023;SDS011;72676;47.526;8.538;2024-01-15T10:27:11;25.90;;;9.70;;
73023;SDS011;72676;47.526;8.538;2024-01-15T10:29:38;25.60;;;9.57;;
73023;SDS011;72676;47.526;8.538;2024-01-15T10:32:08;20.93;;;7.60;;
73023;SDS011;72676;47.526;8.538;2024-01-15T10:34:38;18.83;;;8.90;;
73023;SDS011;72676;47.526;8.538;2024-01-15T10:37:07;25.00;;;8.60;;
73023;SDS011;72676;47.526;8.538;2024-01-15T10:39:34;20.47;;;8.47;;
73023;SDS011;72676;47.526;8.538;2024-01-15T10:42:01;22.20;;;8.40;;
73023;SDS011;72676;47.526;8.538;2024-01-15T10:44:29;22.13;;;8.83;;
73023;SDS011;72676;47.526;8.538;2024-01-15T10:46:55;21.20;;;8.60;;
73023;SDS011;72676;47.526;8.538;2024-01-15T10:49:23;28.80;;;9.53;;
73023;SDS011;72676;47.526;8.538;2024-01-15T10:51:58;21.83;;;8.27;;
73023;SDS011;72676;47.526;8.538;2024-01-15T10:54:25;17.60;;;7.47;;
73023;SDS011;72676;47.526;8.538;2024-01-15T10:56:53;18.97;;;7.57;;
73023;SDS011;72676;47.526;8.538;2024-01-15T10:59:22;14.73;;;6.80;;
73023;SDS011;72676;47.526;8.538;2024-01-15T11:01:49;18.20;;;7.20;;
73023;SDS011;72676;47.526;8.538;2024-01-15T11:04:20;17.50;;;7.80;;
73023;SDS011;72676;47.526;8.538;2024-01-15T11:06:50;13.97;;;5.97;;
73023;SDS011;72676;47.526;8.538;2024-01-15T11:09:23;19.10;;;6.17;;
73023;SDS011;72676;47.526;8.538;2024-01-15T11:12:06;14.90;;;6.50;;
73023;SDS011;72676;47.526;8.538;2024-01-15T11:14:47;12.70;;;5.80;;
73023;SDS011;72676;47.526;8.538;2024-01-15T11:17:15;18.70;;;6.30;;
73023;SDS011;72676;47.526;8.538;2024-01-15T11:19:44;16.43;;;6.97;;
73023;SDS011;72676;47.526;8.538;2024-01-15T11:25:02;13.23;;;6.70;;
73023;SDS011;72676;47.526;8.538;2024-01-15T11:27:45;22.23;;;7.27;;
73023;SDS011;72676;47.526;8.538;2024-01-15T11:30:21;12.47;;;6.43;;
73023;SDS011;72676;47.526;8.538;2024-01-15T11:32:51;11.20;;;5.10;;
73023;SDS011;72676;47.526;8.538;2024-01-15T11:35:18;15.80;;;5.30;;
73023;SDS011;72676;47.526;8.538;2024-01-15T11:37:56;18.30;;;6.10;;
73023;SDS011;72676;47.526;8.538;2024-01-15T11:40:36;12.80;;;5.80;;
73023;SDS011;72676;47.526;8.538;2024-01-15T11:43:04;22.13;;;6.47;;
73023;SDS011;72676;47.526;8.538;2024-01-15T11:45:32;14.23;;;6.90;;
73023;SDS011;72676;47.526;8.538;2024-01-15T11:48:15;11.23;;;5.47;;
73023;SDS011;72676;47.526;8.538;2024-01-15T11:50:44;14.03;;;5.70;;
73023;SDS011;72676;47.526;8.538;2024-01-15T11:56:13;13.80;;;5.20;;
73023;SDS011;72676;47.526;8.538;2024-01-15T11:58:44;14.43;;;5.60;;
73023;SDS011;72676;47.526;8.538;2024-01-15T12:01:11;9.90;;;4.60;;
73023;SDS011;72676;47.526;8.538;2024-01-15T12:03:39;12.17;;;5.50;;
73023;SDS011;72676;47.526;8.538;2024-01-15T12:06:06;11.53;;;4.53;;
73023;SDS011;72676;47.526;8.538;2024-01-15T12:08:33;14.63;;;6.00;;
73023;SDS011;72676;47.526;8.538;2024-01-15T12:11:01;20.93;;;4.97;;
73023;SDS011;72676;47.526;8.538;2024-01-15T12:13:33;13.20;;;5.30;;
73023;SDS011;72676;47.526;8.538;2024-01-15T12:16:01;15.33;;;4.80;;
73023;SDS011;72676;47.526;8.538;2024-01-15T12:18:28;14.60;;;5.37;;
73023;SDS011;72676;47.526;8.538;2024-01-15T12:20:55;13.30;;;5.20;;
73023;SDS011;72676;47.526;8.538;2024-01-15T12:23:21;11.43;;;5.50;;
73023;SDS011;72676;47.526;8.538;2024-01-15T12:25:50;16.47;;;5.10;;
73023;SDS011;72676;47.526;8.538;2024-01-15T12:28:16;14.83;;;6.70;;
73023;SDS011;72676;47.526;8.538;2024-01-15T12:30:46;11.20;;;5.77;;
73023;SDS011;72676;47.526;8.538;2024-01-15T12:33:17;14.10;;;5.73;;
73023;SDS011;72676;47.526;8.538;2024-01-15T12:35:44;11.07;;;5.33;;
73023;SDS011;72676;47.526;8.538;2024-01-15T12:38:10;13.50;;;5.37;;
73023;SDS011;72676;47.526;8.538;2024-01-15T12:40:37;12.63;;;5.40;;
73023;SDS011;72676;47.526;8.538;2024-01-15T12:43:07;17.10;;;5.50;;
73023;SDS011;72676;47.526;8.538;2024-01-15T12:45:34;13.90;;;6.50;;
73023;SDS011;72676;47.526;8.538;2024-01-15T12:48:02;15.93;;;6.63;;
73023;SDS011;72676;47.526;8.538;2024-01-15T12:50:30;16.57;;;6.40;;
73023;SDS011;72676;47.526;8.538;2024-01-15T12:52:56;17.03;;;6.30;;
73023;SDS011;72676;47.526;8.538;2024-01-15T12:55:25;14.40;;;6.50;;
73023;SDS011;72676;47.526;8.538;2024-01-15T12:57:51;14.70;;;6.60;;
73023;SDS011;72676;47.526;8.538;2024-01-15T13:00:21;13.40;;;6.00;;
73023;SDS011;72676;47.526;8.538;2024-01-15T13:02:48;12.50;;;6.50;;
73023;SDS011;72676;47.526;8.538;2024-01-15T13:05:16;14.60;;;6.57;;
73023;SDS011;72676;47.526;8.538;2024-01-15T13:07:43;11.80;;;6.10;;
73023;SDS011;72676;47.526;8.538;2024-01-15T13:10:10;16.60;;;6.70;;
73023;SDS011;72676;47.526;8.538;2024-01-15T13:12:37;12.97;;;5.90;;
73023;SDS011;72676;47.526;8.538;2024-01-15T13:15:05;17.73;;;6.80;;
73023;SDS011;72676;47.526;8.538;2024-01-15T13:17:38;13.00;;;6.70;;
73023;SDS011;72676;47.526;8.538;2024-01-15T13:20:06;13.10;;;5.70;;
73023;SDS011;72676;47.526;8.538;2024-01-15T13:22:33;15.60;;;7.30;;
73023;SDS011;72676;47.526;8.538;2024-01-15T13:25:00;18.83;;;8.47;;
73023;SDS011;72676;47.526;8.538;2024-01-15T13:27:27;20.30;;;9.73;;
73023;SDS011;72676;47.526;8.538;2024-01-15T13:29:54;20.03;;;9.40;;
73023;SDS011;72676;47.526;8.538;2024-01-15T13:32:24;25.00;;;11.37;;
73023;SDS011;72676;47.526;8.538;2024-01-15T13:34:55;34.00;;;11.97;;
73023;SDS011;72676;47.526;8.538;2024-01-15T13:37:23;26.83;;;11.37;;
73023;SDS011;72676;47.526;8.538;2024-01-15T13:39:51;29.60;;;11.87;;
73023;SDS011;72676;47.526;8.538;2024-01-15T13:42:20;30.13;;;12.40;;
73023;SDS011;72676;47.526;8.538;2024-01-15T13:44:50;35.80;;;13.93;;
73023;SDS011;72676;47.526;8.538;2024-01-15T13:47:18;33.37;;;13.40;;
73023;SDS011;72676;47.526;8.538;2024-01-15T13:49:45;30.87;;;14.23;;
73023;SDS011;72676;47.526;8.538;2024-01-15T13:52:11;36.73;;;13.57;;
73023;SDS011;72676;47.526;8.538;2024-01-15T13:54:39;34.97;;;14.87;;
73023;SDS011;72676;47.526;8.538;2024-01-15T13:57:16;39.43;;;16.17;;
73023;SDS011;72676;47.526;8.538;2024-01-15T13:59:43;41.07;;;15.23;;
73023;SDS011;72676;47.526;8.538;2024-01-15T14:02:10;33.80;;;14.67;;
73023;SDS011;72676;47.526;8.538;2024-01-15T14:04:37;41.73;;;15.93;;
73023;SDS011;72676;47.526;8.538;2024-01-15T14:07:05;41.13;;;16.37;;
73023;SDS011;72676;47.526;8.538;2024-01-15T14:09:31;35.73;;;15.67;;
73023;SDS011;72676;47.526;8.538;2024-01-15T14:11:58;40.83;;;16.77;;
73023;SDS011;72676;47.526;8.538;2024-01-15T14:14:24;41.20;;;17.90;;
73023;SDS011;72676;47.526;8.538;2024-01-15T14:16:51;42.50;;;17.90;;
73023;SDS011;72676;47.526;8.538;2024-01-15T14:19:18;47.63;;;16.97;;
73023;SDS011;72676;47.526;8.538;2024-01-15T14:21:45;39.80;;;16.53;;
73023;SDS011;72676;47.526;8.538;2024-01-15T14:24:12;48.57;;;16.80;;
73023;SDS011;72676;47.526;8.538;2024-01-15T14:26:39;43.10;;;16.20;;
73023;SDS011;72676;47.526;8.538;2024-01-15T14:29:05;47.97;;;17.40;;
73023;SDS011;72676;47.526;8.538;2024-01-15T14:31:32;36.90;;;14.90;;
73023;SDS011;72676;47.526;8.538;2024-01-15T14:34:01;39.33;;;17.13;;